Time;durP1;ratioP1;P1;durP2;ratioP2;P2;SDS_P1;SDS_P2;PMS_P1;PMS_P2;Temp;Humidity;BMP_temperature;BMP_pressure;BME280_temperature;BME280_humidity;BME280_pressure;Samples;Min_cycle;Max_cycle;Signal;HPM_P1;HPM_P2
2023/09/26 00:01:04;;;;;;;23.02;3.28;;;15.10;99.90;;;;;;4995446;28;20250;-77
2023/09/26 00:03:29;;;;;;;19.05;3.03;;;15.00;99.90;;;;;;4995306;28;21001;-77
2023/09/26 00:05:55;;;;;;;19.42;2.97;;;15.00;99.90;;;;;;4995508;28;20258;-77
2023/09/26 00:08:21;;;;;;;16.52;3.17;;;14.90;99.90;;;;;;4994926;28;20649;-76
2023/09/26 00:10:46;;;;;;;20.08;3.65;;;14.90;99.90;;;;;;4993993;28;20184;-76
2023/09/26 00:13:16;;;;;;;24.08;4.38;;;14.80;99.90;;;;;;4993130;28;20545;-77
2023/09/26 00:15:42;;;;;;;21.85;3.67;;;14.80;99.90;;;;;;4998749;28;20171;-77
2023/09/26 00:18:08;;;;;;;18.40;3.35;;;14.70;99.90;;;;;;5001301;28;20225;-77
2023/09/26 00:20:38;;;;;;;17.17;2.97;;;14.80;99.90;;;;;;4999820;28;20175;-76
2023/09/26 00:23:04;;;;;;;21.27;3.40;;;13.10;99.90;;;;;;5009131;28;20242;-78
2023/09/26 00:25:30;;;;;;;16.77;2.45;;;14.60;99.90;;;;;;5003438;28;20179;-77
2023/09/26 00:27:56;;;;;;;17.33;2.30;;;14.50;99.90;;;;;;4999992;28;20187;-77
2023/09/26 00:30:27;;;;;;;17.42;2.60;;;14.50;99.90;;;;;;4996025;28;20663;-78
2023/09/26 00:32:53;;;;;;;18.40;2.63;;;14.40;99.90;;;;;;4995744;28;20168;-77
2023/09/26 00:35:19;;;;;;;20.20;3.47;;;14.60;99.90;;;;;;4995542;28;20538;-78
2023/09/26 00:37:49;;;;;;;14.23;3.00;;;14.40;99.90;;;;;;4995673;28;20179;-78
2023/09/26 00:40:16;;;;;;;23.58;3.63;;;14.40;99.90;;;;;;4994839;28;20175;-77
2023/09/26 00:42:45;;;;;;;18.98;3.28;;;14.40;99.90;;;;;;4994257;28;20377;-77
2023/09/26 00:45:12;;;;;;;18.45;3.83;;;14.40;99.90;;;;;;4994683;28;20215;-77
2023/09/26 00:47:42;;;;;;;21.38;3.22;;;14.40;99.90;;;;;;4994625;28;20174;-78
2023/09/26 00:50:09;;;;;;;23.95;3.30;;;14.40;99.90;;;;;;4994437;28;20171;-77
2023/09/26 00:52:36;;;;;;;20.08;3.28;;;14.30;99.90;;;;;;4994441;28;20182;-77
2023/09/26 00:55:04;;;;;;;21.35;3.25;;;14.30;99.90;;;;;;4994431;28;20183;-77
2023/09/26 00:57:36;;;;;;;11.50;2.58;;;14.20;99.90;;;;;;4993404;28;20185;-77
2023/09/26 01:00:03;;;;;;;24.08;4.05;;;14.30;99.90;;;;;;4994200;28;20186;-77
2023/09/26 01:02:30;;;;;;;18.23;3.97;;;14.30;99.90;;;;;;4992914;28;20277;-77
2023/09/26 01:04:55;;;;;;;20.77;3.08;;;14.30;99.90;;;;;;4994634;28;20175;-77
2023/09/26 01:07:22;;;;;;;19.38;3.03;;;14.30;99.90;;;;;;4994039;28;20186;-78
2023/09/26 01:09:48;;;;;;;21.20;2.90;;;14.30;99.90;;;;;;4994111;28;20198;-77
2023/09/26 01:12:16;;;;;;;18.02;3.10;;;14.20;99.90;;;;;;4994161;28;20175;-77
2023/09/26 01:14:42;;;;;;;19.23;2.92;;;14.50;99.90;;;;;;4994233;28;20210;-78
2023/09/26 01:17:07;;;;;;;22.80;3.47;;;14.30;99.90;;;;;;4993998;28;20179;-77
2023/09/26 01:19:33;;;;;;;14.32;3.15;;;14.30;99.90;;;;;;4993828;28;20171;-78
2023/09/26 01:21:59;;;;;;;17.00;3.10;;;14.40;99.90;;;;;;4993973;28;20247;-77
2023/09/26 01:24:25;;;;;;;20.25;3.17;;;14.50;99.90;;;;;;4993651;28;20174;-77
2023/09/26 01:26:50;;;;;;;17.10;3.67;;;14.50;99.90;;;;;;4993443;28;20194;-77
2023/09/26 01:29:16;;;;;;;17.63;3.08;;;14.60;99.90;;;;;;4993385;28;20228;-77
2023/09/26 01:31:42;;;;;;;21.63;3.88;;;14.70;99.90;;;;;;4993484;28;20171;-77
2023/09/26 01:34:08;;;;;;;16.95;3.30;;;;;;;;;;4993777;28;20579;-77
2023/09/26 01:36:34;;;;;;;19.80;3.35;;;14.70;99.90;;;;;;4993439;28;20171;-77
2023/09/26 01:39:00;;;;;;;23.52;3.03;;;14.70;99.90;;;;;;4993412;28;20198;-77
2023/09/26 01:41:28;;;;;;;16.88;3.50;;;14.60;99.90;;;;;;4993201;28;20233;-77
2023/09/26 01:43:53;;;;;;;13.85;2.80;;;14.70;99.90;;;;;;4993402;28;20194;-77
2023/09/26 01:46:20;;;;;;;14.43;3.25;;;14.70;99.90;;;;;;4992637;28;20254;-77
2023/09/26 01:48:46;;;;;;;18.15;3.13;;;14.60;99.90;;;;;;4981512;28;20705;-76
2023/09/26 01:51:15;;;;;;;18.20;3.25;;;14.60;99.90;;;;;;4993199;28;20713;-77
2023/09/26 01:53:40;;;;;;;17.95;3.42;;;14.50;99.90;;;;;;4983548;28;20231;-77
2023/09/26 01:56:06;;;;;;;13.93;3.05;;;14.60;99.90;;;;;;4973612;28;20176;-77
2023/09/26 01:58:32;;;;;;;17.05;3.08;;;14.60;99.90;;;;;;4973397;28;20204;-77
2023/09/26 02:00:58;;;;;;;19.35;3.38;;;14.60;99.90;;;;;;4973418;28;20180;-77
2023/09/26 02:03:24;;;;;;;16.15;3.60;;;14.60;99.90;;;;;;4973392;28;20681;-77
2023/09/26 02:05:51;;;;;;;14.35;2.78;;;14.60;99.90;;;;;;4982645;28;20167;-76
2023/09/26 02:08:16;;;;;;;12.85;2.90;;;14.70;99.90;;;;;;4992539;28;20187;-77
2023/09/26 02:10:43;;;;;;;12.02;3.17;;;14.60;99.90;;;;;;4992772;28;20172;-77
2023/09/26 02:13:11;;;;;;;18.58;2.90;;;14.70;99.90;;;;;;4990544;28;20183;-77
2023/09/26 02:15:36;;;;;;;16.42;3.33;;;14.70;99.90;;;;;;4991267;28;20175;-77
2023/09/26 02:18:02;;;;;;;17.00;3.20;;;14.60;99.90;;;;;;4992796;28;20254;-77
2023/09/26 02:20:28;;;;;;;12.98;2.75;;;14.60;99.90;;;;;;4992617;28;20173;-77
2023/09/26 02:22:54;;;;;;;16.85;2.88;;;14.60;99.90;;;;;;4992433;28;20682;-77
2023/09/26 02:25:20;;;;;;;12.20;2.63;;;14.70;99.90;;;;;;4991268;28;20182;-77
2023/09/26 02:27:47;;;;;;;17.75;3.05;;;14.70;99.90;;;;;;4992352;28;20179;-77
2023/09/26 02:30:15;;;;;;;12.77;2.97;;;14.70;99.90;;;;;;4992113;28;20175;-77
2023/09/26 02:32:41;;;;;;;14.05;2.80;;;14.70;99.90;;;;;;4992106;28;20175;-77
2023/09/26 02:35:13;;;;;;;15.77;2.90;;;14.70;99.90;;;;;;4992026;28;20182;-77
2023/09/26 02:37:39;;;;;;;12.73;2.85;;;14.70;99.90;;;;;;4992251;28;20183;-77
2023/09/26 02:40:12;;;;;;;13.15;2.80;;;14.70;99.90;;;;;;4992348;28;20182;-77
2023/09/26 02:42:39;;;;;;;16.48;2.95;;;14.60;99.90;;;;;;4980131;28;20246;-77
2023/09/26 02:45:05;;;;;;;20.38;3.03;;;14.50;99.90;;;;;;4972927;28;20179;-77
2023/09/26 02:47:31;;;;;;;14.13;2.95;;;14.60;99.90;;;;;;4972739;28;20635;-77
2023/09/26 02:49:56;;;;;;;14.95;2.65;;;14.20;99.90;;;;;;4977128;28;20171;-77
2023/09/26 02:52:23;;;;;;;19.15;2.92;;;14.60;99.90;;;;;;4972822;28;20647;-78
2023/09/26 02:54:49;;;;;;;13.23;2.65;;;14.60;99.90;;;;;;4992076;28;20203;-77
2023/09/26 02:57:15;;;;;;;15.95;2.75;;;14.80;99.90;;;;;;4990393;28;20183;-77
2023/09/26 02:59:41;;;;;;;13.23;2.75;;;14.50;99.90;;;;;;4982790;28;20187;-77
2023/09/26 03:02:07;;;;;;;18.35;4.00;;;14.70;99.90;;;;;;4977068;28;20215;-77
2023/09/26 03:04:33;;;;;;;15.93;2.55;;;14.90;99.90;;;;;;4972473;28;20507;-77
2023/09/26 03:06:59;;;;;;;14.32;2.75;;;14.60;99.90;;;;;;4974691;28;20658;-77
2023/09/26 03:09:24;;;;;;;15.43;2.88;;;14.50;99.90;;;;;;4985221;28;20543;-77
2023/09/26 03:11:50;;;;;;;14.73;3.17;;;14.40;99.90;;;;;;4981753;28;20190;-76
2023/09/26 03:14:18;;;;;;;17.88;2.90;;;14.40;99.90;;;;;;4978900;28;20675;-76
2023/09/26 03:16:44;;;;;;;11.57;3.03;;;14.60;99.90;;;;;;4972267;28;20175;-77
2023/09/26 03:19:10;;;;;;;16.67;2.95;;;14.50;99.90;;;;;;4981011;28;20184;-76
2023/09/26 03:21:36;;;;;;;14.07;3.17;;;14.80;99.90;;;;;;4972033;28;20627;-76
2023/09/26 03:24:02;;;;;;;17.25;2.92;;;14.60;99.90;;;;;;4971015;28;20176;-77
2023/09/26 03:26:27;;;;;;;15.75;3.17;;;14.60;99.90;;;;;;4972151;28;20242;-77
2023/09/26 03:28:53;;;;;;;13.27;2.65;;;14.60;99.90;;;;;;4989129;28;20185;-77
2023/09/26 03:31:19;;;;;;;14.32;2.90;;;14.60;99.90;;;;;;4980644;28;20271;-76
2023/09/26 03:33:45;;;;;;;14.35;3.15;;;14.70;99.90;;;;;;4991309;28;20179;-77
2023/09/26 03:36:10;;;;;;;15.50;3.75;;;14.70;99.90;;;;;;4982032;28;20685;-77
2023/09/26 03:38:36;;;;;;;15.40;3.20;;;15.00;99.90;;;;;;4976213;28;20180;-77
2023/09/26 03:41:05;;;;;;;17.02;3.00;;;15.00;99.90;;;;;;4972058;28;20224;-77
2023/09/26 03:43:31;;;;;;;22.27;3.78;;;15.10;99.90;;;;;;4972147;28;20223;-77
2023/09/26 03:46:07;;;;;;;11.75;2.83;;;15.20;99.90;;;;;;4971834;28;20547;-77
2023/09/26 03:48:34;;;;;;;12.43;2.72;;;15.20;99.90;;;;;;4985853;28;20700;-77
2023/09/26 03:51:13;;;;;;;15.02;2.88;;;15.20;99.90;;;;;;4973262;28;20186;-77
2023/09/26 03:53:41;;;;;;;12.95;3.28;;;15.20;99.90;;;;;;4970727;28;20191;-76
2023/09/26 03:56:07;;;;;;;15.15;2.60;;;15.20;99.90;;;;;;4971908;28;20196;-77
2023/09/26 03:58:33;;;;;;;13.85;3.08;;;15.20;99.90;;;;;;4976733;28;20172;-76
2023/09/26 04:01:13;;;;;;;16.20;2.63;;;15.20;99.90;;;;;;4988719;28;20181;-77
2023/09/26 04:03:51;;;;;;;14.93;2.63;;;15.20;99.90;;;;;;4989401;28;20257;-77
2023/09/26 04:06:17;;;;;;;17.77;2.90;;;15.20;99.90;;;;;;4971976;28;20179;-77
2023/09/26 04:08:43;;;;;;;13.02;2.63;;;15.20;99.90;;;;;;4986975;28;20595;-77
2023/09/26 04:11:15;;;;;;;15.63;2.70;;;15.30;99.90;;;;;;4979508;28;20183;-77
2023/09/26 04:13:41;;;;;;;15.93;2.95;;;15.80;99.90;;;;;;4991301;28;20179;-77
2023/09/26 04:16:07;;;;;;;14.80;3.00;;;15.40;99.90;;;;;;4983880;28;20184;-77
2023/09/26 04:18:33;;;;;;;13.57;2.65;;;15.40;99.90;;;;;;4990825;28;20593;-76
2023/09/26 04:21:06;;;;;;;14.20;3.13;;;15.40;99.90;;;;;;4991160;28;20175;-77
2023/09/26 04:23:32;;;;;;;12.70;2.70;;;15.50;99.90;;;;;;4990857;28;20293;-77
2023/09/26 04:25:58;;;;;;;13.60;2.90;;;15.30;99.90;;;;;;4991077;28;20274;-77
2023/09/26 04:28:23;;;;;;;22.38;3.38;;;15.60;99.90;;;;;;4980024;28;20679;-77
2023/09/26 04:30:49;;;;;;;18.98;2.85;;;15.60;99.90;;;;;;4970862;28;20183;-77
2023/09/26 04:33:15;;;;;;;13.13;2.63;;;15.60;99.90;;;;;;4975284;28;20214;-77
2023/09/26 04:35:41;;;;;;;15.88;2.90;;;15.60;99.90;;;;;;4989841;28;20271;-76
2023/09/26 04:38:07;;;;;;;14.48;3.17;;;15.60;99.90;;;;;;4993013;28;20210;-77
2023/09/26 04:40:34;;;;;;;15.13;3.10;;;15.70;99.90;;;;;;4992932;28;20210;-76
2023/09/26 04:43:06;;;;;;;14.48;2.65;;;15.70;99.90;;;;;;4992831;28;20210;-77
2023/09/26 04:45:32;;;;;;;10.55;2.35;;;15.70;99.90;;;;;;4994227;28;20167;-77
2023/09/26 04:48:00;;;;;;;13.68;2.90;;;15.70;99.90;;;;;;4994760;28;20229;-77
2023/09/26 04:50:27;;;;;;;20.90;3.33;;;15.80;99.90;;;;;;4994314;28;20542;-77
2023/09/26 04:52:53;;;;;;;19.45;3.13;;;15.70;99.90;;;;;;4994049;28;20182;-77
2023/09/26 04:55:19;;;;;;;16.85;3.95;;;15.80;99.90;;;;;;4994418;28;20175;-77
2023/09/26 04:57:44;;;;;;;19.88;3.15;;;15.80;99.90;;;;;;4994245;28;20172;-77
2023/09/26 05:00:11;;;;;;;14.00;2.95;;;15.70;99.90;;;;;;4993933;28;20569;-77
2023/09/26 05:02:36;;;;;;;13.27;2.97;;;15.70;99.90;;;;;;4993860;28;20229;-77
2023/09/26 05:05:03;;;;;;;17.60;3.25;;;15.60;99.90;;;;;;4994123;28;20263;-77
2023/09/26 05:07:30;;;;;;;11.45;2.75;;;15.70;99.90;;;;;;4994005;28;20175;-77
2023/09/26 05:09:56;;;;;;;13.27;2.70;;;15.60;99.90;;;;;;4994186;28;20263;-77
2023/09/26 05:12:22;;;;;;;17.70;3.28;;;15.60;99.90;;;;;;4983716;28;20176;-77
2023/09/26 05:14:48;;;;;;;13.55;2.97;;;15.60;99.90;;;;;;4983134;28;20198;-79
2023/09/26 05:17:14;;;;;;;19.33;3.67;;;15.50;99.90;;;;;;4990663;28;20266;-78
2023/09/26 05:19:39;;;;;;;17.75;3.17;;;15.40;99.90;;;;;;4994010;28;20234;-78
2023/09/26 05:22:05;;;;;;;16.88;3.15;;;15.40;99.90;;;;;;4977559;28;20274;-77
2023/09/26 05:24:31;;;;;;;13.55;3.30;;;15.40;99.90;;;;;;4990290;28;20174;-77
2023/09/26 05:26:56;;;;;;;14.18;2.92;;;15.30;99.90;;;;;;4981928;28;20218;-77
2023/09/26 05:29:22;;;;;;;21.10;3.25;;;15.30;99.90;;;;;;4993318;28;20656;-77
2023/09/26 05:31:48;;;;;;;13.80;3.28;;;15.30;99.90;;;;;;4986876;28;20176;-77
2023/09/26 05:34:13;;;;;;;12.00;3.13;;;15.30;99.90;;;;;;4975271;28;20168;-76
2023/09/26 05:36:39;;;;;;;15.00;2.97;;;15.40;99.90;;;;;;4974516;28;20252;-77
2023/09/26 05:39:05;;;;;;;12.23;3.15;;;15.40;99.90;;;;;;4975483;28;20200;-76
2023/09/26 05:41:31;;;;;;;12.73;3.00;;;15.40;99.90;;;;;;4974971;28;20578;-77
2023/09/26 05:43:56;;;;;;;11.15;3.22;;;15.40;99.90;;;;;;4980582;28;20185;-77
2023/09/26 05:46:22;;;;;;;12.02;3.15;;;15.40;99.90;;;;;;4993960;28;20183;-77
2023/09/26 05:48:50;;;;;;;13.30;3.38;;;15.40;99.90;;;;;;4992931;28;20183;-77
2023/09/26 05:51:15;;;;;;;11.30;2.88;;;15.40;99.90;;;;;;4993064;28;20171;-75
2023/09/26 05:53:41;;;;;;;12.27;3.10;;;15.40;99.90;;;;;;4991805;28;20185;-75
2023/09/26 05:56:07;;;;;;;11.15;2.95;;;15.50;99.90;;;;;;4993095;28;20261;-76
2023/09/26 05:58:33;;;;;;;8.65;2.60;;;15.50;99.90;;;;;;4992948;28;20261;-77
2023/09/26 06:01:07;;;;;;;12.32;3.00;;;15.50;99.90;;;;;;4991862;28;20262;-75
2023/09/26 06:03:32;;;;;;;16.05;2.97;;;15.50;99.90;;;;;;4992699;28;20203;-76
2023/09/26 06:06:02;;;;;;;9.18;2.63;;;15.60;99.90;;;;;;4992843;28;20182;-77
2023/09/26 06:08:28;;;;;;;12.40;2.38;;;15.60;99.90;;;;;;4992579;28;20170;-77
2023/09/26 06:10:54;;;;;;;9.35;2.70;;;15.60;99.90;;;;;;4992575;28;20168;-76
2023/09/26 06:13:20;;;;;;;9.95;2.40;;;15.70;99.90;;;;;;4992554;28;20516;-76
2023/09/26 06:15:46;;;;;;;9.27;2.20;;;15.80;99.90;;;;;;4992818;28;20179;-76
2023/09/26 06:18:12;;;;;;;7.55;2.30;;;;;;;;;;4992506;28;20194;-77
2023/09/26 06:20:40;;;;;;;8.40;2.55;;;15.70;99.90;;;;;;4992279;28;20638;-76
2023/09/26 06:23:05;;;;;;;7.68;2.25;;;15.80;99.90;;;;;;4992278;28;20225;-76
2023/09/26 06:25:31;;;;;;;8.98;2.40;;;15.80;99.90;;;;;;4992313;28;20250;-75
2023/09/26 06:27:57;;;;;;;5.88;2.20;;;15.80;99.90;;;;;;4992355;28;20221;-76
2023/09/26 06:30:22;;;;;;;10.20;2.42;;;15.80;99.90;;;;;;4992145;28;20171;-76
2023/09/26 06:32:48;;;;;;;10.82;2.13;;;15.80;99.90;;;;;;4992205;28;20179;-76
2023/09/26 06:35:14;;;;;;;8.43;2.25;;;15.90;99.90;;;;;;4992218;28;20207;-77
2023/09/26 06:37:40;;;;;;;9.77;2.58;;;15.90;99.90;;;;;;4992142;28;20171;-75
2023/09/26 06:40:06;;;;;;;6.28;2.17;;;15.80;99.90;;;;;;4990820;28;20179;-75
2023/09/26 06:42:33;;;;;;;6.13;2.10;;;15.90;99.90;;;;;;4991746;28;20222;-74
2023/09/26 06:44:59;;;;;;;4.82;1.35;;;15.90;99.90;;;;;;4989906;28;20188;-74
2023/09/26 06:47:25;;;;;;;4.50;1.20;;;15.90;99.90;;;;;;4991628;28;20175;-75
2023/09/26 06:49:52;;;;;;;3.22;0.90;;;15.90;99.90;;;;;;4991783;28;20167;-77
2023/09/26 06:52:18;;;;;;;1.92;0.90;;;15.90;99.90;;;;;;4986433;28;20639;-78
2023/09/26 06:54:44;;;;;;;1.38;0.50;;;15.90;99.90;;;;;;4983423;28;20273;-78
2023/09/26 06:57:10;;;;;;;1.20;0.57;;;16.00;99.90;;;;;;4975438;28;20665;-77
2023/09/26 06:59:36;;;;;;;0.65;0.40;;;16.00;99.90;;;;;;4993056;28;20182;-76
2023/09/26 07:02:02;;;;;;;0.63;0.50;;;16.00;99.90;;;;;;4991581;28;20638;-77
2023/09/26 07:04:28;;;;;;;1.23;0.40;;;16.10;99.90;;;;;;4992139;28;20225;-77
2023/09/26 07:06:53;;;;;;;1.33;0.60;;;16.10;99.90;;;;;;4990425;28;20262;-76
2023/09/26 07:09:20;;;;;;;0.73;0.45;;;16.10;99.90;;;;;;4991604;28;20255;-76
2023/09/26 07:11:47;;;;;;;1.35;0.50;;;16.10;99.90;;;;;;4991417;28;20273;-76
2023/09/26 07:14:13;;;;;;;2.22;0.50;;;16.10;99.90;;;;;;4991924;28;20190;-77
2023/09/26 07:16:38;;;;;;;1.23;0.63;;;16.00;99.90;;;;;;4991646;28;20246;-76
2023/09/26 07:19:04;;;;;;;1.15;0.50;;;16.10;99.90;;;;;;4991626;28;20676;-76
2023/09/26 07:21:30;;;;;;;0.70;0.45;;;16.10;99.90;;;;;;4990576;28;20687;-76
2023/09/26 07:23:56;;;;;;;1.67;0.50;;;15.70;99.90;;;;;;4992521;28;20206;-76
2023/09/26 07:26:22;;;;;;;1.67;0.75;;;16.10;99.90;;;;;;4989785;28;20246;-76
2023/09/26 07:28:49;;;;;;;1.23;0.47;;;16.00;99.90;;;;;;4991306;28;20187;-76
2023/09/26 07:31:17;;;;;;;0.60;0.40;;;16.00;99.90;;;;;;4991354;28;20218;-76
2023/09/26 07:33:43;;;;;;;0.90;0.50;;;16.40;99.90;;;;;;4990065;28;20203;-78
2023/09/26 07:36:09;;;;;;;1.20;0.65;;;16.00;99.90;;;;;;4991545;28;20171;-76
2023/09/26 07:38:35;;;;;;;2.65;0.80;;;16.00;99.90;;;;;;4991042;28;20181;-78
2023/09/26 07:41:02;;;;;;;1.08;0.60;;;16.10;99.90;;;;;;4990224;28;20629;-76
2023/09/26 07:43:33;;;;;;;1.13;0.60;;;;;;;;;;4990902;28;20253;-77
2023/09/26 07:46:05;;;;;;;1.55;0.57;;;16.50;99.90;;;;;;4991548;28;20159;-77
2023/09/26 07:48:32;;;;;;;2.15;0.70;;;;;;;;;;4991355;28;20186;-76
2023/09/26 07:50:58;;;;;;;2.50;0.88;;;16.40;99.90;;;;;;4991150;28;20171;-77
2023/09/26 07:53:24;;;;;;;2.75;0.82;;;16.60;99.90;;;;;;4986678;28;20217;-76
2023/09/26 07:55:49;;;;;;;2.22;0.93;;;16.70;99.90;;;;;;4993726;28;20185;-76
2023/09/26 07:58:16;;;;;;;1.77;0.80;;;;;;;;;;5007443;28;20194;-77
2023/09/26 08:00:43;;;;;;;2.30;0.90;;;16.50;99.90;;;;;;4990447;28;20185;-75
2023/09/26 08:03:09;;;;;;;1.38;0.70;;;16.70;99.90;;;;;;4991346;28;20274;-77
2023/09/26 08:05:35;;;;;;;2.45;0.98;;;16.80;99.90;;;;;;4991389;28;20222;-76
2023/09/26 08:08:04;;;;;;;3.13;0.80;;;16.80;99.90;;;;;;4994893;28;20183;-76
2023/09/26 08:10:31;;;;;;;2.03;0.80;;;14.10;99.90;;;;;;4994810;28;20331;-76
2023/09/26 08:12:56;;;;;;;2.50;0.82;;;16.80;99.90;;;;;;4994709;28;20171;-76
2023/09/26 08:15:22;;;;;;;2.72;1.02;;;16.70;99.90;;;;;;4994824;28;20664;-75
2023/09/26 08:17:48;;;;;;;2.05;0.88;;;16.80;99.90;;;;;;4986755;28;20622;-76
2023/09/26 08:20:14;;;;;;;1.75;0.70;;;16.80;99.90;;;;;;4982718;28;20536;-76
2023/09/26 08:22:39;;;;;;;2.22;1.00;;;16.80;99.90;;;;;;4977110;28;20610;-76
2023/09/26 08:25:07;;;;;;;2.65;0.85;;;17.00;99.90;;;;;;5009445;28;20179;-76
2023/09/26 08:27:33;;;;;;;1.95;0.90;;;18.60;99.90;;;;;;4994682;28;20225;-75
2023/09/26 08:29:59;;;;;;;2.40;0.88;;;19.40;99.90;;;;;;4992725;28;20195;-75
2023/09/26 08:32:26;;;;;;;2.58;1.20;;;19.10;99.90;;;;;;4977211;28;20176;-76
2023/09/26 08:34:52;;;;;;;3.30;1.10;;;18.50;99.90;;;;;;4979907;28;20183;-76
2023/09/26 08:37:18;;;;;;;2.97;1.00;;;18.50;99.90;;;;;;4974857;28;20530;-75
2023/09/26 08:39:43;;;;;;;3.25;1.13;;;18.10;99.90;;;;;;4975108;28;20285;-75
2023/09/26 08:42:17;;;;;;;3.60;1.38;;;18.00;99.90;;;;;;4989857;28;20227;-75
2023/09/26 08:44:43;;;;;;;5.78;1.40;;;17.80;99.90;;;;;;4994246;28;20178;-75
2023/09/26 08:47:09;;;;;;;5.40;1.10;;;18.10;99.90;;;;;;4994402;28;20182;-75
2023/09/26 08:49:40;;;;;;;3.88;0.98;;;18.40;99.90;;;;;;4993914;28;20167;-74
2023/09/26 08:52:06;;;;;;;3.75;1.10;;;18.40;99.90;;;;;;4992099;28;20172;-74
2023/09/26 08:54:32;;;;;;;2.80;1.13;;;18.40;99.90;;;;;;4983153;28;20180;-75
2023/09/26 08:56:58;;;;;;;3.08;1.48;;;18.30;99.90;;;;;;4985642;28;20171;-76
2023/09/26 08:59:26;;;;;;;6.13;1.48;;;18.20;99.90;;;;;;4980480;28;20215;-75
2023/09/26 09:01:52;;;;;;;3.47;1.30;;;17.80;99.90;;;;;;4974986;28;20204;-75
2023/09/26 09:04:21;;;;;;;3.65;1.63;;;;;;;;;;4979188;28;20274;-78
2023/09/26 09:06:47;;;;;;;4.20;1.15;;;18.30;99.90;;;;;;5004103;28;20189;-78
2023/09/26 09:09:13;;;;;;;4.75;1.20;;;18.00;99.90;;;;;;5013623;28;20194;-76
2023/09/26 09:11:39;;;;;;;2.13;0.90;;;18.10;99.90;;;;;;5013424;28;20177;-75
2023/09/26 09:14:06;;;;;;;7.63;1.48;;;18.50;99.90;;;;;;5012015;28;20283;-74
2023/09/26 09:16:32;;;;;;;4.13;1.50;;;18.40;99.90;;;;;;5013328;28;20201;-75
2023/09/26 09:18:58;;;;;;;4.18;1.40;;;18.20;99.90;;;;;;5000432;28;20638;-76
2023/09/26 09:21:41;;;;;;;5.18;1.70;;;18.70;99.90;;;;;;4989309;28;20634;-76
2023/09/26 09:24:07;;;;;;;4.72;1.35;;;;;;;;;;4985821;28;20195;-77
2023/09/26 09:26:35;;;;;;;4.15;1.50;;;18.90;99.90;;;;;;4983582;28;20167;-76
2023/09/26 09:29:22;;;;;;;6.80;1.80;;;18.70;99.90;;;;;;4987785;28;20634;-78
2023/09/26 09:31:48;;;;;;;7.53;1.90;;;;;;;;;;4973832;28;20172;-78
2023/09/26 09:34:18;;;;;;;4.13;1.58;;;18.70;99.90;;;;;;4973976;28;20651;-76
2023/09/26 09:36:44;;;;;;;7.80;1.80;;;18.30;99.90;;;;;;4975251;28;20318;-76
2023/09/26 09:39:10;;;;;;;6.25;1.80;;;;;;;;;;4975462;28;20267;-75
2023/09/26 09:41:40;;;;;;;4.75;1.63;;;18.70;99.90;;;;;;4981937;28;20245;-75
2023/09/26 09:44:06;;;;;;;8.57;2.20;;;18.80;99.90;;;;;;4993097;28;20179;-75
2023/09/26 09:46:38;;;;;;;5.18;1.60;;;18.80;99.90;;;;;;4988932;28;20527;-77
2023/09/26 09:49:06;;;;;;;5.38;1.60;;;18.80;99.90;;;;;;4976729;28;20180;-76
2023/09/26 09:51:32;;;;;;;5.88;1.90;;;18.80;99.90;;;;;;4973857;28;20172;-76
2023/09/26 09:54:00;;;;;;;6.57;2.05;;;19.00;99.90;;;;;;4973816;28;20176;-76
2023/09/26 09:56:33;;;;;;;9.85;2.42;;;19.20;99.90;;;;;;4973735;28;20227;-76
2023/09/26 09:59:05;;;;;;;9.48;2.20;;;19.30;99.90;;;;;;4973516;28;20168;-77
2023/09/26 10:01:33;;;;;;;7.53;1.75;;;19.40;99.90;;;;;;4973549;28;20191;-76
2023/09/26 10:04:00;;;;;;;8.55;2.22;;;19.50;99.90;;;;;;4973477;28;20176;-76
2023/09/26 10:06:27;;;;;;;6.65;1.92;;;20.10;99.90;;;;;;4972235;28;20654;-77
2023/09/26 10:08:54;;;;;;;6.72;2.10;;;20.20;99.90;;;;;;4972104;28;20168;-76
2023/09/26 10:11:22;;;;;;;8.25;2.40;;;20.80;99.90;;;;;;4972326;28;20239;-76
2023/09/26 10:13:48;;;;;;;8.23;2.17;;;20.40;99.90;;;;;;4972004;28;20870;-77
2023/09/26 10:16:16;;;;;;;12.32;2.60;;;19.60;99.90;;;;;;4972262;28;20183;-76
2023/09/26 10:18:43;;;;;;;8.98;2.00;;;20.00;99.90;;;;;;4972724;28;20231;-76
2023/09/26 10:21:24;;;;;;;8.10;2.08;;;20.00;99.90;;;;;;4973009;28;20175;-77
2023/09/26 10:24:08;;;;;;;8.10;2.35;;;20.30;99.90;;;;;;4973209;28;20212;-74
2023/09/26 10:26:34;;;;;;;9.75;2.25;;;;;;;;;;4974452;28;20179;-75
2023/09/26 10:29:08;;;;;;;8.90;2.67;;;20.40;99.90;;;;;;4971751;28;20811;-76
2023/09/26 10:31:34;;;;;;;7.78;2.28;;;;;;;;;;4973105;28;20178;-77
2023/09/26 10:34:01;;;;;;;6.05;1.98;;;19.40;99.90;;;;;;4973235;28;20183;-77
2023/09/26 10:36:28;;;;;;;6.85;1.80;;;19.00;99.90;;;;;;4973179;28;20180;-76
2023/09/26 10:39:01;;;;;;;8.45;2.15;;;19.50;99.90;;;;;;4973743;28;20174;-76
2023/09/26 10:41:27;;;;;;;6.70;1.80;;;;;;;;;;4974425;28;20355;-76
2023/09/26 10:43:54;;;;;;;9.80;1.88;;;19.70;99.90;;;;;;4978973;28;20222;-76
2023/09/26 10:46:19;;;;;;;9.80;2.33;;;19.50;99.90;;;;;;4980788;28;20216;-76
2023/09/26 10:48:45;;;;;;;11.52;2.03;;;;;;;;;;4978873;28;20647;-77
2023/09/26 10:51:11;;;;;;;7.75;1.90;;;20.40;99.90;;;;;;4979781;28;20186;-76
2023/09/26 10:53:36;;;;;;;6.68;2.00;;;21.20;99.90;;;;;;4981031;28;20219;-76
2023/09/26 10:56:03;;;;;;;8.60;2.10;;;21.90;99.90;;;;;;4974915;28;20172;-76
2023/09/26 10:58:32;;;;;;;5.55;1.88;;;22.10;1.00;;;;;;4972328;28;20187;-76
2023/09/26 11:00:58;;;;;;;8.93;2.25;;;23.00;1.00;;;;;;4972806;28;20214;-76
2023/09/26 11:03:24;;;;;;;7.72;2.10;;;;;;;;;;4972549;28;20210;-76
2023/09/26 11:05:50;;;;;;;8.30;2.00;;;23.20;1.00;;;;;;4972542;28;20176;-76
2023/09/26 11:08:17;;;;;;;9.88;2.53;;;22.80;99.90;;;;;;4972425;28;20176;-75
2023/09/26 11:10:47;;;;;;;5.07;1.98;;;22.90;99.90;;;;;;4972527;28;20306;-76
2023/09/26 11:13:13;;;;;;;10.57;2.72;;;23.20;99.90;;;;;;4972468;28;20171;-76
2023/09/26 11:15:39;;;;;;;8.77;2.67;;;;;;;;;;4972870;28;20178;-76
2023/09/26 11:18:09;;;;;;;8.95;2.42;;;24.60;4.00;;;;;;4972319;28;20603;-76
2023/09/26 11:20:35;;;;;;;8.23;2.45;;;25.10;1.00;;;;;;4972450;28;20654;-76
2023/09/26 11:23:01;;;;;;;7.93;2.15;;;;;;;;;;4972372;28;20251;-76
2023/09/26 11:25:27;;;;;;;6.68;2.50;;;22.50;1.00;;;;;;4972436;28;20662;-76
2023/09/26 11:27:52;;;;;;;8.20;2.65;;;;;;;;;;4972277;28;20179;-77
2023/09/26 11:30:20;;;;;;;10.77;2.72;;;21.50;99.90;;;;;;4972084;28;20178;-77
2023/09/26 11:32:49;;;;;;;8.50;2.53;;;21.10;99.90;;;;;;4972515;28;20215;-76
2023/09/26 11:35:15;;;;;;;13.57;2.70;;;20.40;1.00;;;;;;4972244;28;20639;-77
2023/09/26 11:37:41;;;;;;;11.13;2.63;;;;;;;;;;4972290;28;20187;-76
2023/09/26 11:40:21;;;;;;;6.78;1.92;;;20.00;1.00;;;;;;4972161;28;20172;-75
2023/09/26 11:42:48;;;;;;;10.50;2.53;;;19.90;1.00;;;;;;4976131;28;20227;-77
2023/09/26 11:45:26;;;;;;;6.28;1.83;;;21.30;1.00;;;;;;4975524;28;20218;-76
2023/09/26 11:47:56;;;;;;;9.52;2.28;;;22.80;1.00;;;;;;4992015;28;20175;-76
2023/09/26 11:50:23;;;;;;;9.55;2.00;;;23.60;1.00;;;;;;4995336;28;20187;-77
2023/09/26 11:52:50;;;;;;;5.10;2.00;;;23.40;1.00;;;;;;4995072;28;20274;-76
2023/09/26 11:55:20;;;;;;;7.68;2.38;;;23.90;99.90;;;;;;4995580;28;20262;-76
2023/09/26 11:57:49;;;;;;;9.75;2.50;;;24.30;99.90;;;;;;4994945;28;20175;-76
2023/09/26 12:00:18;;;;;;;8.18;2.30;;;24.10;1.00;;;;;;4995218;28;20183;-76
2023/09/26 12:02:45;;;;;;;9.35;2.45;;;25.20;1.00;;;;;;4995040;28;20627;-76
2023/09/26 12:05:12;;;;;;;10.65;2.45;;;25.10;1.00;;;;;;4995158;28;20250;-78
2023/09/26 12:07:41;;;;;;;8.90;2.20;;;24.70;1.00;;;;;;4995061;28;20214;-77
2023/09/26 12:10:08;;;;;;;12.18;2.63;;;24.60;1.00;;;;;;4995016;28;20729;-78
2023/09/26 12:12:34;;;;;;;12.85;2.78;;;;;;;;;;4993947;28;20186;-77
2023/09/26 12:15:20;;;;;;;10.00;2.67;;;24.00;1.00;;;;;;4995060;28;20653;-77
2023/09/26 12:17:48;;;;;;;8.15;2.28;;;23.40;1.00;;;;;;4995621;28;20261;-77
2023/09/26 12:20:21;;;;;;;11.30;1.95;;;22.60;1.00;;;;;;4996045;28;20179;-76
2023/09/26 12:22:48;;;;;;;10.48;2.47;;;22.60;1.00;;;;;;4994950;28;20298;-75
2023/09/26 12:25:14;;;;;;;7.97;1.88;;;21.70;1.00;;;;;;4994565;28;20587;-76
2023/09/26 12:27:39;;;;;;;7.50;2.28;;;21.50;99.90;;;;;;4994725;28;20266;-77
2023/09/26 12:30:06;;;;;;;8.57;2.55;;;21.00;1.00;;;;;;4994275;28;20225;-76
2023/09/26 12:32:32;;;;;;;8.70;2.38;;;21.40;1.00;;;;;;4994592;28;20804;-76
2023/09/26 12:34:58;;;;;;;16.50;2.72;;;;;;;;;;4994801;28;20225;-77
2023/09/26 12:37:23;;;;;;;10.43;2.58;;;22.40;99.90;;;;;;4994533;28;20175;-76
2023/09/26 12:39:49;;;;;;;8.80;2.33;;;23.20;1.00;;;;;;4994630;28;20668;-77
2023/09/26 12:42:14;;;;;;;11.98;2.17;;;23.30;1.00;;;;;;4994300;28;20315;-76
2023/09/26 12:44:41;;;;;;;6.18;1.98;;;22.40;1.00;;;;;;4994341;28;20276;-76
2023/09/26 12:47:07;;;;;;;11.00;2.08;;;22.40;98.30;;;;;;4994586;28;20211;-77